CheckWX is a tool to help pilots better visualize weather data.  It is not intended as a substitute for an official pre-flight weather briefing.

02:23:04 UTC

KOXR METAR
Oxnard Airport
Oxnard, California, USA
Current

32 mins ago

KOXR 180151Z 29021G29KT 10SM SCT090 11/03 A2996 RMK AO2 PK WND 28032/0104 SLP144 T01110028
Observed
Feb-18 @ 01:51 UTC
Wind
  • 290° at 21 KTS
  • Gusting to 29 KTS
Visibility
10 SM
Flight Rules
VFR
Cloud Levels
  • Scattered at 9,000' AGL
Temperature
11°C / 52°F
Dewpoint
C / 37°F
Humidity
58%
Altimeter
29.96" Hg
Pressure
1014.4 hPa
Previous

2 hours ago

KOXR 180051Z 28022G30KT 10SM FEW050 12/04 A2995 RMK AO2 PK WND 27034/0024 SLP141 T01220044
Observed
Feb-18 @ 00:51 UTC
Wind
  • 280° at 22 KTS
  • Gusting to 30 KTS
Visibility
10 SM
Flight Rules
VFR
Cloud Levels
  • Few at 5,000' AGL
Temperature
12°C / 54°F
Dewpoint
C / 39°F
Humidity
58%
Altimeter
29.95" Hg
Pressure
1014.1 hPa
Previous

3 hours ago

KOXR 172351Z 27026G34KT 10SM FEW050 13/05 A2994 RMK AO2 PK WND 26034/2343 SLP138 60000 T01280050 10139 20106 56025
Observed
Feb-17 @ 23:51 UTC
Wind
  • 270° at 26 KTS
  • Gusting to 34 KTS
Visibility
10 SM
Flight Rules
VFR
Cloud Levels
  • Few at 5,000' AGL
Temperature
13°C / 55°F
Dewpoint
C / 41°F
Humidity
59%
Altimeter
29.94" Hg
Pressure
1013.8 hPa